Stortebeker — ZDEG7 — position and weather

sailwx.info

Track history (hours):
 
Tides and Currents Weather Stations Pressure Air Temp Water Temp Dewpoint Dewpoint Depression Visibility Wind Speed Wind Dir Waves Ship Positions

Stortebeker

Last reported at 2018-Jul-22 08:00 UTC. Time now 2018-Jul-22 08:18 UTC.
Position N 53°31' E 009°57'.

Length 82 m; draft 3.9 m.

Type: Cargo ship. MMSI: 236119000.

Date/timePositionNaut miles runAvg speedWind from/ knotsBaromVisibWave heightAir tempDewpointWater temp
2018-Jul-22 08:00N 53°31' E 009°57'0 0.0
2018-Jul-22 07:27N 53°31' E 009°57'0 0.0
2018-Jul-22 07:00N 53°31' E 009°57'0 0.0
2018-Jul-22 06:30N 53°31' E 009°57'0 0.0
2018-Jul-22 06:00N 53°31' E 009°57'0 0.0
2018-Jul-22 05:30N 53°31' E 009°57'0 0.0
2018-Jul-22 05:00N 53°31' E 009°57'0 0.0
2018-Jul-22 04:30N 53°31' E 009°57'0 0.0
2018-Jul-22 04:00N 53°31' E 009°57'0 0.0
2018-Jul-22 03:30N 53°31' E 009°57'0 0.0
2018-Jul-22 03:00N 53°31' E 009°57'0 0.0
2018-Jul-22 02:30N 53°31' E 009°57'0 0.0
2018-Jul-22 02:00N 53°31' E 009°57'0 0.0
2018-Jul-22 01:30N 53°31' E 009°57'0 0.0
2018-Jul-22 00:58N 53°31' E 009°57'1 1.8
2018-Jul-22 00:30N 53°32' E 009°56'4 8.5
2018-Jul-22 00:00N 53°33' E 009°49'5 9.5
2018-Jul-21 23:30N 53°34' E 009°42'5 9.7
2018-Jul-21 23:00N 53°36' E 009°35'510.1
2018-Jul-21 22:30N 53°41' E 009°30'510.5
2018-Jul-21 22:00N 53°45' E 009°25'611.2
2018-Jul-21 21:30N 53°50' E 009°21'611.4
2018-Jul-21 21:00N 53°53' E 009°12'510.2
2018-Jul-21 20:30N 53°52' E 009°04'612.3
2018-Jul-21 20:00N 53°50' E 008°54'611.7
2018-Jul-21 19:30N 53°52' E 008°44'612.0
2018-Jul-21 19:00N 53°57' E 008°38'711.9
2018-Jul-21 18:26N 53°59' E 008°27'511.6
2018-Jul-21 17:58N 53°59' E 008°18'1110.1
2018-Jul-21 16:54N 53°57' E 008°00'4 9.4
2018-Jul-21 16:30N 53°56' E 007°54'3 0.5
2018-Jul-21 11:08N 53°54' E 007°52'6 9.1
2018-Jul-21 10:27N 53°51' E 008°01'612.9
2018-Jul-21 10:00N 53°48' E 008°09'713.6
2018-Jul-21 09:31N 53°43' E 008°17'713.9
2018-Jul-21 09:00N 53°38' E 008°26'613.0
2018-Jul-21 08:31N 53°34' E 008°33'0 0.7
2018-Jul-21 08:00N 53°33' E 008°34'0 0.5
2018-Jul-21 07:29N 53°33' E 008°34'0 0.1
2018-Jul-21 06:59N 53°33' E 008°34'0 0.0
2018-Jul-21 06:29N 53°33' E 008°34'0 0.0
2018-Jul-21 05:59N 53°33' E 008°34'0 0.0
2018-Jul-21 05:29N 53°33' E 008°34'0 0.0
2018-Jul-21 04:59N 53°33' E 008°34'0 0.0
2018-Jul-21 04:29N 53°33' E 008°34'0 0.0
2018-Jul-21 03:59N 53°33' E 008°34'0 0.0
2018-Jul-21 03:29N 53°33' E 008°34'0 0.0
2018-Jul-21 02:59N 53°33' E 008°34'0 0.0
2018-Jul-21 02:29N 53°33' E 008°34'0 0.0
2018-Jul-21 01:59N 53°33' E 008°34'0 0.0
2018-Jul-21 01:29N 53°33' E 008°34'0 0.0
2018-Jul-21 00:59N 53°33' E 008°34'0 0.0
2018-Jul-21 00:29N 53°33' E 008°34'0 0.0
2018-Jul-20 23:59N 53°33' E 008°34'0 0.0
2018-Jul-20 23:29N 53°33' E 008°34'0 0.0
2018-Jul-20 22:59N 53°33' E 008°34'0 0.0
2018-Jul-20 22:29N 53°33' E 008°34'0 0.0
2018-Jul-20 21:59N 53°33' E 008°34'0 0.0
2018-Jul-20 21:29N 53°33' E 008°34'0 0.0
2018-Jul-20 20:59N 53°33' E 008°34'0 0.0
2018-Jul-20 20:29N 53°33' E 008°34'0 0.0
2018-Jul-20 19:59N 53°33' E 008°34'0 0.0
2018-Jul-20 19:29N 53°33' E 008°34'0 0.0
2018-Jul-20 18:59N 53°33' E 008°34'0 0.0
2018-Jul-20 18:29N 53°33' E 008°34'0 0.0
2018-Jul-20 17:59N 53°33' E 008°34'0 0.0
2018-Jul-20 17:29N 53°33' E 008°34'0 0.0
2018-Jul-20 16:59N 53°33' E 008°34'0 0.0
2018-Jul-20 16:29N 53°33' E 008°34'0 0.0
2018-Jul-20 15:59N 53°33' E 008°34'0 0.0
2018-Jul-20 15:29N 53°33' E 008°34'0 0.0
2018-Jul-20 14:59N 53°33' E 008°34'0 0.0
2018-Jul-20 14:29N 53°33' E 008°34'0 0.0
2018-Jul-20 13:59N 53°33' E 008°34'0 0.0
2018-Jul-20 13:29N 53°33' E 008°34'0 0.0
2018-Jul-20 12:59N 53°33' E 008°34'0 0.0
2018-Jul-20 12:29N 53°33' E 008°34'0 0.0
2018-Jul-20 11:59N 53°33' E 008°34'0 0.0
2018-Jul-20 11:29N 53°33' E 008°34'0 0.0
2018-Jul-20 10:59N 53°33' E 008°34'0 0.0
2018-Jul-20 10:29N 53°33' E 008°34'0 0.0
2018-Jul-20 09:59N 53°33' E 008°34'0 0.0
2018-Jul-20 09:29N 53°33' E 008°34'0 0.0
2018-Jul-20 08:59N 53°33' E 008°34'0 0.0
2018-Jul-20 08:29N 53°33' E 008°34'0 0.0
2018-Jul-20 07:59N 53°33' E 008°34'0 0.0
2018-Jul-20 07:29N 53°33' E 008°34'0 0.0
2018-Jul-20 06:59N 53°33' E 008°34'0 0.0
2018-Jul-20 06:29N 53°33' E 008°34'0 0.0
2018-Jul-20 05:59N 53°33' E 008°34'0 0.0
2018-Jul-20 05:29N 53°33' E 008°34'0 0.0
2018-Jul-20 04:59N 53°33' E 008°34'0 0.0
2018-Jul-20 04:29N 53°33' E 008°34'0 0.0
2018-Jul-20 03:59N 53°33' E 008°34'0 0.0
2018-Jul-20 03:29N 53°33' E 008°34'0 0.0
2018-Jul-20 02:59N 53°33' E 008°34'0 0.0
2018-Jul-20 02:29N 53°33' E 008°34'0 0.0
2018-Jul-20 01:59N 53°33' E 008°34'0 0.0
2018-Jul-20 01:29N 53°33' E 008°34'0 0.0
2018-Jul-20 00:59N 53°33' E 008°34'0 0.0
2018-Jul-20 00:29N 53°33' E 008°34'0 0.0
2018-Jul-19 23:59N 53°33' E 008°34'0 0.0
2018-Jul-19 23:29N 53°33' E 008°34'0 0.0
2018-Jul-19 22:59N 53°33' E 008°34'0 0.0
2018-Jul-19 22:29N 53°33' E 008°34'0 0.0
2018-Jul-19 21:59N 53°33' E 008°34'0 0.0
2018-Jul-19 21:29N 53°33' E 008°34'0 0.0
2018-Jul-19 20:59N 53°33' E 008°34'0 0.0
2018-Jul-19 20:29N 53°33' E 008°34'0 0.0
2018-Jul-19 19:59N 53°33' E 008°34'0 0.0
2018-Jul-19 19:29N 53°33' E 008°34'0 0.0
2018-Jul-19 18:59N 53°33' E 008°34'0 0.0
2018-Jul-19 18:29N 53°33' E 008°34'0 0.0
2018-Jul-19 17:59N 53°33' E 008°34'0 0.0
2018-Jul-19 17:29N 53°33' E 008°34'0 0.0
2018-Jul-19 16:59N 53°33' E 008°34'0 0.0
2018-Jul-19 16:29N 53°33' E 008°34'0 0.0
2018-Jul-19 15:59N 53°33' E 008°34'0 0.0
2018-Jul-19 15:29N 53°33' E 008°34'0 0.0
2018-Jul-19 14:59N 53°33' E 008°34'0 0.0
2018-Jul-19 14:29N 53°33' E 008°34'0 0.0
2018-Jul-19 13:29N 53°33' E 008°34'0 0.0
2018-Jul-19 12:59N 53°33' E 008°34'0 0.0
2018-Jul-19 12:29N 53°33' E 008°34'0 0.0
2018-Jul-19 11:59N 53°33' E 008°34'0 0.0
2018-Jul-19 11:29N 53°33' E 008°34'0 0.0
2018-Jul-19 10:59N 53°33' E 008°34'0 0.0
2018-Jul-19 10:29N 53°33' E 008°34'0 0.0
2018-Jul-19 09:59N 53°33' E 008°34'0 0.0
2018-Jul-19 09:29N 53°33' E 008°34'0 0.0
2018-Jul-19 08:59N 53°33' E 008°34'0 0.0
2018-Jul-19 08:29N 53°33' E 008°34'0 0.0
2018-Jul-19 07:59N 53°33' E 008°34'0 0.0
2018-Jul-19 07:29N 53°33' E 008°34'0 0.0
2018-Jul-19 06:59N 53°33' E 008°34'0 0.0
2018-Jul-19 06:29N 53°33' E 008°34'0 0.0
2018-Jul-19 05:59N 53°33' E 008°34'0 0.0
2018-Jul-19 05:29N 53°33' E 008°34'0 0.0
2018-Jul-19 04:59N 53°33' E 008°34'0 0.0
2018-Jul-19 04:29N 53°33' E 008°34'0 0.0
2018-Jul-19 03:59N 53°33' E 008°34'0 0.0
2018-Jul-19 03:29N 53°33' E 008°34'0 0.0
2018-Jul-19 02:59N 53°33' E 008°34'0 0.0
2018-Jul-19 02:29N 53°33' E 008°34'0 0.0
2018-Jul-19 01:59N 53°33' E 008°34'0 0.0
2018-Jul-19 01:29N 53°33' E 008°34'0 0.0
2018-Jul-19 00:59N 53°33' E 008°34'0 0.0
2018-Jul-19 00:29N 53°33' E 008°34'0 0.0
2018-Jul-18 23:59N 53°33' E 008°34'0 0.0
2018-Jul-18 23:29N 53°33' E 008°34'0 0.0
2018-Jul-18 22:59N 53°33' E 008°34'0 0.0
2018-Jul-18 22:29N 53°33' E 008°34'0 0.0
2018-Jul-18 21:59N 53°33' E 008°34'0 0.0
2018-Jul-18 21:29N 53°33' E 008°34'0 0.0
2018-Jul-18 20:59N 53°33' E 008°34'0 0.0
2018-Jul-18 20:29N 53°33' E 008°34'0 0.0
2018-Jul-18 19:59N 53°33' E 008°34'0 0.0
2018-Jul-18 19:29N 53°33' E 008°34'0 0.0
2018-Jul-18 18:59N 53°33' E 008°34'0 0.0
2018-Jul-18 18:29N 53°33' E 008°34'0 0.0
2018-Jul-18 17:59N 53°33' E 008°34'0 0.0
2018-Jul-18 17:26N 53°33' E 008°34'0 0.0
2018-Jul-18 16:59N 53°33' E 008°34'0 0.0
2018-Jul-18 16:29N 53°33' E 008°34'0 0.0
2018-Jul-18 15:59N 53°33' E 008°34'0 0.0
2018-Jul-18 15:29N 53°33' E 008°34'0 0.0
2018-Jul-18 14:59N 53°33' E 008°34'0 0.0
2018-Jul-18 14:29N 53°33' E 008°34'0 0.0
2018-Jul-18 13:29N 53°33' E 008°34'0 0.0
2018-Jul-18 12:59N 53°33' E 008°34'0 0.0
2018-Jul-18 12:29N 53°33' E 008°34'0 0.0
2018-Jul-18 11:59N 53°33' E 008°34'0 0.0
2018-Jul-18 11:29N 53°33' E 008°34'0 0.0
2018-Jul-18 10:29N 53°33' E 008°34'0 0.0
2018-Jul-18 09:59N 53°33' E 008°34'0 0.0
2018-Jul-18 09:29N 53°33' E 008°34'0 0.0
2018-Jul-18 08:59N 53°33' E 008°34'0 0.0
2018-Jul-18 08:29N 53°33' E 008°34'0 0.0
2018-Jul-18 07:59N 53°33' E 008°34'0 0.0
2018-Jul-18 07:29N 53°33' E 008°34'0 0.0
2018-Jul-18 06:59N 53°33' E 008°34'0 0.0
2018-Jul-18 06:29N 53°33' E 008°34'0 0.0
2018-Jul-18 05:59N 53°33' E 008°34'0 0.0
2018-Jul-18 05:29N 53°33' E 008°34'0 0.0
2018-Jul-18 04:59N 53°33' E 008°34'0 0.0
2018-Jul-18 04:29N 53°33' E 008°34'0 0.0
2018-Jul-18 03:59N 53°33' E 008°34'0 0.0
2018-Jul-18 03:29N 53°33' E 008°34'0 0.0
2018-Jul-18 02:59N 53°33' E 008°34'0 0.0
2018-Jul-18 02:29N 53°33' E 008°34'0 0.0
2018-Jul-18 01:59N 53°33' E 008°34'0 0.0
2018-Jul-18 01:29N 53°33' E 008°34'0 0.0
2018-Jul-18 00:59N 53°33' E 008°34'0 0.0
2018-Jul-18 00:29N 53°33' E 008°34'0 0.0
2018-Jul-17 23:59N 53°33' E 008°34'0 0.0
2018-Jul-17 23:29N 53°33' E 008°34'0 0.0
2018-Jul-17 22:59N 53°33' E 008°34'0 0.0
2018-Jul-17 22:29N 53°33' E 008°34'0 0.0
2018-Jul-17 21:59N 53°33' E 008°34'0 0.0
2018-Jul-17 21:29N 53°33' E 008°34'0 0.0
2018-Jul-17 20:59N 53°33' E 008°34'0 0.0
2018-Jul-17 20:29N 53°33' E 008°34'0 0.0
2018-Jul-17 19:58N 53°33' E 008°34'0 0.0
2018-Jul-17 19:28N 53°33' E 008°34'0 0.0
2018-Jul-17 18:58N 53°33' E 008°34'0 0.0
2018-Jul-17 18:28N 53°33' E 008°34'0 0.0
2018-Jul-17 17:58N 53°33' E 008°34'0 0.0
2018-Jul-17 17:28N 53°33' E 008°34'0 0.0
2018-Jul-17 16:58N 53°33' E 008°34'0 0.0
2018-Jul-17 16:28N 53°33' E 008°34'0 0.0
2018-Jul-17 15:58N 53°33' E 008°34'0 0.0
2018-Jul-17 15:28N 53°33' E 008°34'0 0.0
2018-Jul-17 14:58N 53°33' E 008°34'0 0.0
2018-Jul-17 14:25N 53°33' E 008°34'0 0.0
2018-Jul-17 13:58N 53°33' E 008°34'0 0.0
2018-Jul-17 13:28N 53°33' E 008°34'0 0.0
2018-Jul-17 12:58N 53°33' E 008°34'0 0.0
2018-Jul-17 12:28N 53°33' E 008°34'0 0.0
2018-Jul-17 11:58N 53°33' E 008°34'0 0.0
2018-Jul-17 11:28N 53°33' E 008°34'0 0.0
2018-Jul-17 10:58N 53°33' E 008°34'0 0.0
2018-Jul-17 10:28N 53°33' E 008°34'0 0.0
2018-Jul-17 09:58N 53°33' E 008°34'0 0.0
2018-Jul-17 09:28N 53°33' E 008°34'0 0.0
2018-Jul-17 08:58N 53°33' E 008°34'0 0.0
2018-Jul-17 08:28N 53°33' E 008°34'0 0.0
2018-Jul-17 07:58N 53°33' E 008°34'0 0.0
2018-Jul-17 07:28N 53°33' E 008°34'0 0.0
2018-Jul-17 06:58N 53°33' E 008°34'0 0.0
2018-Jul-17 06:28N 53°33' E 008°34'0 0.0
2018-Jul-17 05:58N 53°33' E 008°34'0 0.0
2018-Jul-17 05:28N 53°33' E 008°34'0 0.0
2018-Jul-17 04:58N 53°33' E 008°34'0 0.0
2018-Jul-17 04:28N 53°33' E 008°34'0 0.0
2018-Jul-17 03:58N 53°33' E 008°34'0 0.0
2018-Jul-17 03:28N 53°33' E 008°34'0 0.0
2018-Jul-17 02:58N 53°33' E 008°34'0 0.0
2018-Jul-17 02:28N 53°33' E 008°34'0 0.0
2018-Jul-17 01:58N 53°33' E 008°34'0 0.0
2018-Jul-17 01:28N 53°33' E 008°34'0 0.0
2018-Jul-17 00:58N 53°33' E 008°34'0 0.0
2018-Jul-17 00:28N 53°33' E 008°34'0 0.0
2018-Jul-16 23:28N 53°33' E 008°34'0 0.0
2018-Jul-16 22:58N 53°33' E 008°34'0 0.0
2018-Jul-16 22:28N 53°33' E 008°34'0 0.0
2018-Jul-16 21:55N 53°33' E 008°34'0 0.0
2018-Jul-16 21:28N 53°33' E 008°34'0 0.0
2018-Jul-16 20:58N 53°33' E 008°34'0 0.0
2018-Jul-16 20:28N 53°33' E 008°34'0 0.0
2018-Jul-16 19:59N 53°33' E 008°34'0 0.0
2018-Jul-16 19:29N 53°33' E 008°34'0 0.0
2018-Jul-16 18:59N 53°33' E 008°34'0 0.0
2018-Jul-16 18:29N 53°33' E 008°34'0 0.0
2018-Jul-16 17:59N 53°33' E 008°34'0 0.0
2018-Jul-16 17:29N 53°33' E 008°34'0 0.0
2018-Jul-16 16:59N 53°33' E 008°34'0 0.0
2018-Jul-16 16:29N 53°33' E 008°34'0 0.0
2018-Jul-16 15:59N 53°33' E 008°34'0 0.0
2018-Jul-16 15:29N 53°33' E 008°34'0 0.0
2018-Jul-16 14:59N 53°33' E 008°34'0 0.0
2018-Jul-16 14:29N 53°33' E 008°34'0 0.0
2018-Jul-16 13:59N 53°33' E 008°34'0 0.0
2018-Jul-16 13:29N 53°33' E 008°34'0 0.0
2018-Jul-16 12:59N 53°33' E 008°34'0 0.0
2018-Jul-16 12:29N 53°33' E 008°34'0 0.0
2018-Jul-16 11:59N 53°33' E 008°34'0 0.0
2018-Jul-16 11:29N 53°33' E 008°34'0 0.0
2018-Jul-16 10:59N 53°33' E 008°34'0 0.0
2018-Jul-16 10:29N 53°33' E 008°34'0 0.0
2018-Jul-16 09:59N 53°33' E 008°34'0 0.0
2018-Jul-16 09:29N 53°33' E 008°34'0 0.0
2018-Jul-16 08:59N 53°33' E 008°34'0 0.0
2018-Jul-16 08:29N 53°33' E 008°34'0 0.0
2018-Jul-16 07:59N 53°33' E 008°34'0 0.0
2018-Jul-16 07:29N 53°33' E 008°34'0 0.0
2018-Jul-16 06:59N 53°33' E 008°34'0 0.0
2018-Jul-16 06:29N 53°33' E 008°34'0 0.0
2018-Jul-16 05:59N 53°33' E 008°34'0 0.0
2018-Jul-16 05:29N 53°33' E 008°34'0 0.0
2018-Jul-16 04:59N 53°33' E 008°34'0 0.0
2018-Jul-16 04:29N 53°33' E 008°34'0 0.0
2018-Jul-16 03:59N 53°33' E 008°34'0 0.0
2018-Jul-16 03:29N 53°33' E 008°34'0 0.0
2018-Jul-16 02:59N 53°33' E 008°34'0 0.0
2018-Jul-16 02:29N 53°33' E 008°34'0 0.0
2018-Jul-16 01:59N 53°33' E 008°34'0 0.0
2018-Jul-16 01:29N 53°33' E 008°34'0 0.0
2018-Jul-16 00:59N 53°33' E 008°34'0 0.0
2018-Jul-16 00:29N 53°33' E 008°34'0 0.0
2018-Jul-15 23:59N 53°33' E 008°34'0 0.0
2018-Jul-15 23:29N 53°33' E 008°34'0 0.0
2018-Jul-15 22:59N 53°33' E 008°34'0 0.0
2018-Jul-15 22:29N 53°33' E 008°34'0 0.0
2018-Jul-15 21:56N 53°33' E 008°34'0 0.0
2018-Jul-15 21:29N 53°33' E 008°34'0 0.0
2018-Jul-15 20:59N 53°33' E 008°34'0 0.0
2018-Jul-15 20:29N 53°33' E 008°34'0 0.0
2018-Jul-15 19:59N 53°33' E 008°34'0 0.0
2018-Jul-15 19:29N 53°33' E 008°34'0 0.0
2018-Jul-15 18:59N 53°33' E 008°34'0 0.0
2018-Jul-15 18:29N 53°33' E 008°34'0 0.0
2018-Jul-15 17:59N 53°33' E 008°34'0 0.0
2018-Jul-15 17:29N 53°33' E 008°34'0 0.0
2018-Jul-15 16:59N 53°33' E 008°34'0 0.0
2018-Jul-15 16:29N 53°33' E 008°34'0 0.0
2018-Jul-15 15:59N 53°33' E 008°34'0 0.0
2018-Jul-15 15:29N 53°33' E 008°34'0 0.0
2018-Jul-15 14:59N 53°33' E 008°34'0 0.0
2018-Jul-15 14:29N 53°33' E 008°34'0 0.0
2018-Jul-15 13:59N 53°33' E 008°34'0 0.0
2018-Jul-15 13:29N 53°33' E 008°34'0 0.0
2018-Jul-15 12:59N 53°33' E 008°34'0 0.0
2018-Jul-15 12:29N 53°33' E 008°34'0 0.0
2018-Jul-15 11:59N 53°33' E 008°34'0 0.0
2018-Jul-15 11:29N 53°33' E 008°34'0 0.0
2018-Jul-15 10:59N 53°33' E 008°34'0 0.0
2018-Jul-15 10:29N 53°33' E 008°34'0 0.0
2018-Jul-15 09:59N 53°33' E 008°34'0 0.0
2018-Jul-15 09:29N 53°33' E 008°34'0 0.0
2018-Jul-15 08:59N 53°33' E 008°34'0 0.0
2018-Jul-15 08:29N 53°33' E 008°34'0 0.0
2018-Jul-15 07:59N 53°33' E 008°34'0 0.0
2018-Jul-15 07:29N 53°33' E 008°34'0 0.0
2018-Jul-15 06:59N 53°33' E 008°34'0 0.0
2018-Jul-15 06:29N 53°33' E 008°34'0 0.0
2018-Jul-15 05:59N 53°33' E 008°34'0 0.0
2018-Jul-15 05:29N 53°33' E 008°34'0 0.0
2018-Jul-15 04:59N 53°33' E 008°34'0 0.0
2018-Jul-15 04:29N 53°33' E 008°34'0 0.0
2018-Jul-15 03:59N 53°33' E 008°34'0 0.0
2018-Jul-15 03:29N 53°33' E 008°34'0 0.0
2018-Jul-15 02:59N 53°33' E 008°34'0 0.0
2018-Jul-15 02:29N 53°33' E 008°34'0 0.0
2018-Jul-15 01:59N 53°33' E 008°34'0 0.0
2018-Jul-15 01:29N 53°33' E 008°34'0 0.0
2018-Jul-15 00:59N 53°33' E 008°34'0 0.0
2018-Jul-15 00:29N 53°33' E 008°34'0 0.0
2018-Jul-14 23:59N 53°33' E 008°34'0 0.0
2018-Jul-14 23:29N 53°33' E 008°34'0 0.0
2018-Jul-14 22:59N 53°33' E 008°34'0 0.0
2018-Jul-14 22:29N 53°33' E 008°34'0 0.0
2018-Jul-14 21:59N 53°33' E 008°34'0 0.0
2018-Jul-14 21:29N 53°33' E 008°34'0 0.0
2018-Jul-14 20:59N 53°33' E 008°34'0 0.0
2018-Jul-14 20:29N 53°33' E 008°34'0 0.0
2018-Jul-14 19:59N 53°33' E 008°34'0 0.0
2018-Jul-14 19:29N 53°33' E 008°34'0 0.0
2018-Jul-14 18:59N 53°33' E 008°34'0 0.0
2018-Jul-14 18:26N 53°33' E 008°34'0 0.0
2018-Jul-14 17:59N 53°33' E 008°34'0 0.0
2018-Jul-14 17:29N 53°33' E 008°34'0 0.0
2018-Jul-14 16:59N 53°33' E 008°34'0 0.0
2018-Jul-14 16:29N 53°33' E 008°34'0 0.0
2018-Jul-14 15:59N 53°33' E 008°34'0 0.0
2018-Jul-14 15:26N 53°33' E 008°34'0 0.0
2018-Jul-14 14:59N 53°33' E 008°34'0 0.0
2018-Jul-14 13:59N 53°33' E 008°34'0 0.0
2018-Jul-14 13:29N 53°33' E 008°34'0 0.0
2018-Jul-14 12:59N 53°33' E 008°34'0 0.0
2018-Jul-14 12:29N 53°33' E 008°34'0 0.0
2018-Jul-14 11:59N 53°33' E 008°34'0 0.0
2018-Jul-14 11:29N 53°33' E 008°34'0 0.0
2018-Jul-14 10:59N 53°33' E 008°34'0 0.0
2018-Jul-14 10:29N 53°33' E 008°34'0 0.0
2018-Jul-14 09:59N 53°33' E 008°34'0 0.0
2018-Jul-14 09:29N 53°33' E 008°34'0 0.0
2018-Jul-14 08:59N 53°33' E 008°34'0 0.0
2018-Jul-14 08:29N 53°33' E 008°34'0 0.0
2018-Jul-14 07:59N 53°33' E 008°34'0 0.0
2018-Jul-14 07:29N 53°33' E 008°34'0 0.1
2018-Jul-14 06:29N 53°33' E 008°34'0 0.0
2018-Jul-14 05:59N 53°33' E 008°34'0 0.0
2018-Jul-14 05:26N 53°33' E 008°34'0 0.0
2018-Jul-14 04:56N 53°33' E 008°34'0 0.0
2018-Jul-14 04:29N 53°33' E 008°34'0 0.0
2018-Jul-14 03:59N 53°33' E 008°34'0 0.0
2018-Jul-14 03:29N 53°33' E 008°34'0 0.0
2018-Jul-14 02:59N 53°33' E 008°34'0 0.0
2018-Jul-14 02:29N 53°33' E 008°34'0 0.0
2018-Jul-14 01:59N 53°33' E 008°34'0 0.0
2018-Jul-14 01:29N 53°33' E 008°34'0 0.0
2018-Jul-14 00:59N 53°33' E 008°34'0 0.0
2018-Jul-14 00:29N 53°33' E 008°34'0 0.0
2018-Jul-13 23:59N 53°33' E 008°34'0 0.0
2018-Jul-13 23:29N 53°33' E 008°34'0 0.0
2018-Jul-13 22:59N 53°33' E 008°34'0 0.0
2018-Jul-13 22:29N 53°33' E 008°34'0 0.0
2018-Jul-13 21:59N 53°33' E 008°34'0 0.0
2018-Jul-13 21:29N 53°33' E 008°34'0 0.0
2018-Jul-13 20:59N 53°33' E 008°34'0 0.0
2018-Jul-13 20:29N 53°33' E 008°34'0 0.0
2018-Jul-13 19:56N 53°33' E 008°34'0 0.0
2018-Jul-13 19:29N 53°33' E 008°34'0 0.0
2018-Jul-13 18:59N 53°33' E 008°34'0 0.0
2018-Jul-13 18:29N 53°33' E 008°34'0 0.0
2018-Jul-13 17:59N 53°33' E 008°34'0 0.0
2018-Jul-13 17:29N 53°33' E 008°34'0 0.0
2018-Jul-13 16:59N 53°33' E 008°34'0 0.0
2018-Jul-13 16:26N 53°33' E 008°34'0 0.0
2018-Jul-13 15:59N 53°33' E 008°34'0 0.0
2018-Jul-13 15:29N 53°33' E 008°34'0 0.0
2018-Jul-13 14:59N 53°33' E 008°34'0 0.0
2018-Jul-13 14:29N 53°33' E 008°34'0 0.0
2018-Jul-13 13:26N 53°33' E 008°34'0 0.3
2018-Jul-13 13:01N 53°33' E 008°34'0 0.2
2018-Jul-13 12:30N 53°33' E 008°34'0 0.1
2018-Jul-13 12:00N 53°33' E 008°34'3 6.4
2018-Jul-13 11:31N 53°36' E 008°30'612.6
2018-Jul-13 11:00N 53°40' E 008°22'612.8
2018-Jul-13 10:30N 53°44' E 008°14'612.8
2018-Jul-13 10:00N 53°49' E 008°07'612.2
2018-Jul-13 09:30N 53°51' E 007°57'611.9
2018-Jul-13 08:59N 53°53' E 007°47'612.1
2018-Jul-13 08:29N 53°54' E 007°37'612.3
2018-Jul-13 07:58N 53°53' E 007°26'612.4
2018-Jul-13 07:30N 53°52' E 007°16'912.4
2018-Jul-13 06:48N 53°50' E 007°02'412.3
2018-Jul-13 06:30N 53°49' E 006°56'912.1
2018-Jul-13 05:47N 53°47' E 006°42'19 6.2
2018-Jul-13 02:46N 53°29' E 006°50'413.3
2018-Jul-13 02:30N 53°26' E 006°55'713.5
2018-Jul-13 02:01N 53°20' E 006°60'713.0
2018-Jul-13 01:30N 53°20' E 007°11'711.1
2018-Jul-13 00:53N 53°18' E 007°22'4 8.7
2018-Jul-13 00:23N 53°14' E 007°25'3 8.2
2018-Jul-12 23:59N 53°11' E 007°23'3 6.6
2018-Jul-12 23:30N 53°08' E 007°22'2 0.9
2018-Jul-12 21:40N 53°06' E 007°22'0 1.2
2018-Jul-12 21:30N 53°06' E 007°22'1 0.6
2018-Jul-12 20:32N 53°05' E 007°23'0 0.0
2018-Jul-12 20:29N 53°05' E 007°23'  
Track history (hours):
 
Tides and Currents Weather Stations Pressure Air Temp Water Temp Dewpoint Dewpoint Depression Visibility Wind Speed Wind Dir Waves Ship Positions

Stortebeker

Last reported at 2018-Jul-22 08:00 UTC. Time now 2018-Jul-22 08:18 UTC.
Position N 53°31' E 009°57'.

Length 82 m; draft 3.9 m.

Type: Cargo ship. MMSI: 236119000.

Date/timePositionNaut miles runAvg speedWind from/ knotsBaromVisibWave heightAir tempDewpointWater temp
2018-Jul-22 08:00N 53°31' E 009°57'0 0.0
2018-Jul-22 07:27N 53°31' E 009°57'0 0.0
2018-Jul-22 07:00N 53°31' E 009°57'0 0.0
2018-Jul-22 06:30N 53°31' E 009°57'0 0.0
2018-Jul-22 06:00N 53°31' E 009°57'0 0.0
2018-Jul-22 05:30N 53°31' E 009°57'0 0.0
2018-Jul-22 05:00N 53°31' E 009°57'0 0.0
2018-Jul-22 04:30N 53°31' E 009°57'0 0.0
2018-Jul-22 04:00N 53°31' E 009°57'0 0.0
2018-Jul-22 03:30N 53°31' E 009°57'0 0.0
2018-Jul-22 03:00N 53°31' E 009°57'0 0.0
2018-Jul-22 02:30N 53°31' E 009°57'0 0.0
2018-Jul-22 02:00N 53°31' E 009°57'0 0.0
2018-Jul-22 01:30N 53°31' E 009°57'0 0.0
2018-Jul-22 00:58N 53°31' E 009°57'1 1.8
2018-Jul-22 00:30N 53°32' E 009°56'4 8.5
2018-Jul-22 00:00N 53°33' E 009°49'5 9.5
2018-Jul-21 23:30N 53°34' E 009°42'5 9.7
2018-Jul-21 23:00N 53°36' E 009°35'510.1
2018-Jul-21 22:30N 53°41' E 009°30'510.5
2018-Jul-21 22:00N 53°45' E 009°25'611.2
2018-Jul-21 21:30N 53°50' E 009°21'611.4
2018-Jul-21 21:00N 53°53' E 009°12'510.2
2018-Jul-21 20:30N 53°52' E 009°04'612.3
2018-Jul-21 20:00N 53°50' E 008°54'611.7
2018-Jul-21 19:30N 53°52' E 008°44'612.0
2018-Jul-21 19:00N 53°57' E 008°38'711.9
2018-Jul-21 18:26N 53°59' E 008°27'511.6
2018-Jul-21 17:58N 53°59' E 008°18'1110.1
2018-Jul-21 16:54N 53°57' E 008°00'4 9.4
2018-Jul-21 16:30N 53°56' E 007°54'3 0.5
2018-Jul-21 11:08N 53°54' E 007°52'6 9.1
2018-Jul-21 10:27N 53°51' E 008°01'612.9
2018-Jul-21 10:00N 53°48' E 008°09'713.6
2018-Jul-21 09:31N 53°43' E 008°17'713.9
2018-Jul-21 09:00N 53°38' E 008°26'613.0
2018-Jul-21 08:31N 53°34' E 008°33'0 0.7
2018-Jul-21 08:00N 53°33' E 008°34'0 0.5
2018-Jul-21 07:29N 53°33' E 008°34'0 0.1
2018-Jul-21 06:59N 53°33' E 008°34'0 0.0
2018-Jul-21 06:29N 53°33' E 008°34'0 0.0
2018-Jul-21 05:59N 53°33' E 008°34'0 0.0
2018-Jul-21 05:29N 53°33' E 008°34'0 0.0
2018-Jul-21 04:59N 53°33' E 008°34'0 0.0
2018-Jul-21 04:29N 53°33' E 008°34'0 0.0
2018-Jul-21 03:59N 53°33' E 008°34'0 0.0
2018-Jul-21 03:29N 53°33' E 008°34'0 0.0
2018-Jul-21 02:59N 53°33' E 008°34'0 0.0
2018-Jul-21 02:29N 53°33' E 008°34'0 0.0
2018-Jul-21 01:59N 53°33' E 008°34'0 0.0
2018-Jul-21 01:29N 53°33' E 008°34'0 0.0
2018-Jul-21 00:59N 53°33' E 008°34'0 0.0
2018-Jul-21 00:29N 53°33' E 008°34'0 0.0
2018-Jul-20 23:59N 53°33' E 008°34'0 0.0
2018-Jul-20 23:29N 53°33' E 008°34'0 0.0
2018-Jul-20 22:59N 53°33' E 008°34'0 0.0
2018-Jul-20 22:29N 53°33' E 008°34'0 0.0
2018-Jul-20 21:59N 53°33' E 008°34'0 0.0
2018-Jul-20 21:29N 53°33' E 008°34'0 0.0
2018-Jul-20 20:59N 53°33' E 008°34'0 0.0
2018-Jul-20 20:29N 53°33' E 008°34'0 0.0
2018-Jul-20 19:59N 53°33' E 008°34'0 0.0
2018-Jul-20 19:29N 53°33' E 008°34'0 0.0
2018-Jul-20 18:59N 53°33' E 008°34'0 0.0
2018-Jul-20 18:29N 53°33' E 008°34'0 0.0
2018-Jul-20 17:59N 53°33' E 008°34'0 0.0
2018-Jul-20 17:29N 53°33' E 008°34'0 0.0
2018-Jul-20 16:59N 53°33' E 008°34'0 0.0
2018-Jul-20 16:29N 53°33' E 008°34'0 0.0
2018-Jul-20 15:59N 53°33' E 008°34'0 0.0
2018-Jul-20 15:29N 53°33' E 008°34'0 0.0
2018-Jul-20 14:59N 53°33' E 008°34'0 0.0
2018-Jul-20 14:29N 53°33' E 008°34'0 0.0
2018-Jul-20 13:59N 53°33' E 008°34'0 0.0
2018-Jul-20 13:29N 53°33' E 008°34'0 0.0
2018-Jul-20 12:59N 53°33' E 008°34'0 0.0
2018-Jul-20 12:29N 53°33' E 008°34'0 0.0
2018-Jul-20 11:59N 53°33' E 008°34'0 0.0
2018-Jul-20 11:29N 53°33' E 008°34'0 0.0
2018-Jul-20 10:59N 53°33' E 008°34'0 0.0
2018-Jul-20 10:29N 53°33' E 008°34'0 0.0
2018-Jul-20 09:59N 53°33' E 008°34'0 0.0
2018-Jul-20 09:29N 53°33' E 008°34'0 0.0
2018-Jul-20 08:59N 53°33' E 008°34'0 0.0
2018-Jul-20 08:29N 53°33' E 008°34'0 0.0
2018-Jul-20 07:59N 53°33' E 008°34'0 0.0
2018-Jul-20 07:29N 53°33' E 008°34'0 0.0
2018-Jul-20 06:59N 53°33' E 008°34'0 0.0
2018-Jul-20 06:29N 53°33' E 008°34'0 0.0
2018-Jul-20 05:59N 53°33' E 008°34'0 0.0
2018-Jul-20 05:29N 53°33' E 008°34'0 0.0
2018-Jul-20 04:59N 53°33' E 008°34'0 0.0
2018-Jul-20 04:29N 53°33' E 008°34'0 0.0
2018-Jul-20 03:59N 53°33' E 008°34'0 0.0
2018-Jul-20 03:29N 53°33' E 008°34'0 0.0
2018-Jul-20 02:59N 53°33' E 008°34'0 0.0
2018-Jul-20 02:29N 53°33' E 008°34'0 0.0
2018-Jul-20 01:59N 53°33' E 008°34'0 0.0
2018-Jul-20 01:29N 53°33' E 008°34'0 0.0
2018-Jul-20 00:59N 53°33' E 008°34'0 0.0
2018-Jul-20 00:29N 53°33' E 008°34'0 0.0
2018-Jul-19 23:59N 53°33' E 008°34'0 0.0
2018-Jul-19 23:29N 53°33' E 008°34'0 0.0
2018-Jul-19 22:59N 53°33' E 008°34'0 0.0
2018-Jul-19 22:29N 53°33' E 008°34'0 0.0
2018-Jul-19 21:59N 53°33' E 008°34'0 0.0
2018-Jul-19 21:29N 53°33' E 008°34'0 0.0
2018-Jul-19 20:59N 53°33' E 008°34'0 0.0
2018-Jul-19 20:29N 53°33' E 008°34'0 0.0
2018-Jul-19 19:59N 53°33' E 008°34'0 0.0
2018-Jul-19 19:29N 53°33' E 008°34'0 0.0
2018-Jul-19 18:59N 53°33' E 008°34'0 0.0
2018-Jul-19 18:29N 53°33' E 008°34'0 0.0
2018-Jul-19 17:59N 53°33' E 008°34'0 0.0
2018-Jul-19 17:29N 53°33' E 008°34'0 0.0
2018-Jul-19 16:59N 53°33' E 008°34'0 0.0
2018-Jul-19 16:29N 53°33' E 008°34'0 0.0
2018-Jul-19 15:59N 53°33' E 008°34'0 0.0
2018-Jul-19 15:29N 53°33' E 008°34'0 0.0
2018-Jul-19 14:59N 53°33' E 008°34'0 0.0
2018-Jul-19 14:29N 53°33' E 008°34'0 0.0
2018-Jul-19 13:29N 53°33' E 008°34'0 0.0
2018-Jul-19 12:59N 53°33' E 008°34'0 0.0
2018-Jul-19 12:29N 53°33' E 008°34'0 0.0
2018-Jul-19 11:59N 53°33' E 008°34'0 0.0
2018-Jul-19 11:29N 53°33' E 008°34'0 0.0
2018-Jul-19 10:59N 53°33' E 008°34'0 0.0
2018-Jul-19 10:29N 53°33' E 008°34'0 0.0
2018-Jul-19 09:59N 53°33' E 008°34'0 0.0
2018-Jul-19 09:29N 53°33' E 008°34'0 0.0
2018-Jul-19 08:59N 53°33' E 008°34'0 0.0
2018-Jul-19 08:29N 53°33' E 008°34'0 0.0
2018-Jul-19 07:59N 53°33' E 008°34'0 0.0
2018-Jul-19 07:29N 53°33' E 008°34'0 0.0
2018-Jul-19 06:59N 53°33' E 008°34'0 0.0
2018-Jul-19 06:29N 53°33' E 008°34'0 0.0
2018-Jul-19 05:59N 53°33' E 008°34'0 0.0
2018-Jul-19 05:29N 53°33' E 008°34'0 0.0
2018-Jul-19 04:59N 53°33' E 008°34'0 0.0
2018-Jul-19 04:29N 53°33' E 008°34'0 0.0
2018-Jul-19 03:59N 53°33' E 008°34'0 0.0
2018-Jul-19 03:29N 53°33' E 008°34'0 0.0
2018-Jul-19 02:59N 53°33' E 008°34'0 0.0
2018-Jul-19 02:29N 53°33' E 008°34'0 0.0
2018-Jul-19 01:59N 53°33' E 008°34'0 0.0
2018-Jul-19 01:29N 53°33' E 008°34'0 0.0
2018-Jul-19 00:59N 53°33' E 008°34'0 0.0
2018-Jul-19 00:29N 53°33' E 008°34'0 0.0
2018-Jul-18 23:59N 53°33' E 008°34'0 0.0
2018-Jul-18 23:29N 53°33' E 008°34'0 0.0
2018-Jul-18 22:59N 53°33' E 008°34'0 0.0
2018-Jul-18 22:29N 53°33' E 008°34'0 0.0
2018-Jul-18 21:59N 53°33' E 008°34'0 0.0
2018-Jul-18 21:29N 53°33' E 008°34'0 0.0
2018-Jul-18 20:59N 53°33' E 008°34'0 0.0
2018-Jul-18 20:29N 53°33' E 008°34'0 0.0
2018-Jul-18 19:59N 53°33' E 008°34'0 0.0
2018-Jul-18 19:29N 53°33' E 008°34'0 0.0
2018-Jul-18 18:59N 53°33' E 008°34'0 0.0
2018-Jul-18 18:29N 53°33' E 008°34'0 0.0
2018-Jul-18 17:59N 53°33' E 008°34'0 0.0
2018-Jul-18 17:26N 53°33' E 008°34'0 0.0
2018-Jul-18 16:59N 53°33' E 008°34'0 0.0
2018-Jul-18 16:29N 53°33' E 008°34'0 0.0
2018-Jul-18 15:59N 53°33' E 008°34'0 0.0
2018-Jul-18 15:29N 53°33' E 008°34'0 0.0
2018-Jul-18 14:59N 53°33' E 008°34'0 0.0
2018-Jul-18 14:29N 53°33' E 008°34'0 0.0
2018-Jul-18 13:29N 53°33' E 008°34'0 0.0
2018-Jul-18 12:59N 53°33' E 008°34'0 0.0
2018-Jul-18 12:29N 53°33' E 008°34'0 0.0
2018-Jul-18 11:59N 53°33' E 008°34'0 0.0
2018-Jul-18 11:29N 53°33' E 008°34'0 0.0
2018-Jul-18 10:29N 53°33' E 008°34'0 0.0
2018-Jul-18 09:59N 53°33' E 008°34'0 0.0
2018-Jul-18 09:29N 53°33' E 008°34'0 0.0
2018-Jul-18 08:59N 53°33' E 008°34'0 0.0
2018-Jul-18 08:29N 53°33' E 008°34'0 0.0
2018-Jul-18 07:59N 53°33' E 008°34'0 0.0
2018-Jul-18 07:29N 53°33' E 008°34'0 0.0
2018-Jul-18 06:59N 53°33' E 008°34'0 0.0
2018-Jul-18 06:29N 53°33' E 008°34'0 0.0
2018-Jul-18 05:59N 53°33' E 008°34'0 0.0
2018-Jul-18 05:29N 53°33' E 008°34'0 0.0
2018-Jul-18 04:59N 53°33' E 008°34'0 0.0
2018-Jul-18 04:29N 53°33' E 008°34'0 0.0
2018-Jul-18 03:59N 53°33' E 008°34'0 0.0
2018-Jul-18 03:29N 53°33' E 008°34'0 0.0
2018-Jul-18 02:59N 53°33' E 008°34'0 0.0
2018-Jul-18 02:29N 53°33' E 008°34'0 0.0
2018-Jul-18 01:59N 53°33' E 008°34'0 0.0
2018-Jul-18 01:29N 53°33' E 008°34'0 0.0
2018-Jul-18 00:59N 53°33' E 008°34'0 0.0
2018-Jul-18 00:29N 53°33' E 008°34'0 0.0
2018-Jul-17 23:59N 53°33' E 008°34'0 0.0
2018-Jul-17 23:29N 53°33' E 008°34'0 0.0
2018-Jul-17 22:59N 53°33' E 008°34'0 0.0
2018-Jul-17 22:29N 53°33' E 008°34'0 0.0
2018-Jul-17 21:59N 53°33' E 008°34'0 0.0
2018-Jul-17 21:29N 53°33' E 008°34'0 0.0
2018-Jul-17 20:59N 53°33' E 008°34'0 0.0
2018-Jul-17 20:29N 53°33' E 008°34'0 0.0
2018-Jul-17 19:58N 53°33' E 008°34'0 0.0
2018-Jul-17 19:28N 53°33' E 008°34'0 0.0
2018-Jul-17 18:58N 53°33' E 008°34'0 0.0
2018-Jul-17 18:28N 53°33' E 008°34'0 0.0
2018-Jul-17 17:58N 53°33' E 008°34'0 0.0
2018-Jul-17 17:28N 53°33' E 008°34'0 0.0
2018-Jul-17 16:58N 53°33' E 008°34'0 0.0
2018-Jul-17 16:28N 53°33' E 008°34'0 0.0
2018-Jul-17 15:58N 53°33' E 008°34'0 0.0
2018-Jul-17 15:28N 53°33' E 008°34'0 0.0
2018-Jul-17 14:58N 53°33' E 008°34'0 0.0
2018-Jul-17 14:25N 53°33' E 008°34'0 0.0
2018-Jul-17 13:58N 53°33' E 008°34'0 0.0
2018-Jul-17 13:28N 53°33' E 008°34'0 0.0
2018-Jul-17 12:58N 53°33' E 008°34'0 0.0
2018-Jul-17 12:28N 53°33' E 008°34'0 0.0
2018-Jul-17 11:58N 53°33' E 008°34'0 0.0
2018-Jul-17 11:28N 53°33' E 008°34'0 0.0
2018-Jul-17 10:58N 53°33' E 008°34'0 0.0
2018-Jul-17 10:28N 53°33' E 008°34'0 0.0
2018-Jul-17 09:58N 53°33' E 008°34'0 0.0
2018-Jul-17 09:28N 53°33' E 008°34'0 0.0
2018-Jul-17 08:58N 53°33' E 008°34'0 0.0
2018-Jul-17 08:28N 53°33' E 008°34'0 0.0
2018-Jul-17 07:58N 53°33' E 008°34'0 0.0
2018-Jul-17 07:28N 53°33' E 008°34'0 0.0
2018-Jul-17 06:58N 53°33' E 008°34'0 0.0
2018-Jul-17 06:28N 53°33' E 008°34'0 0.0
2018-Jul-17 05:58N 53°33' E 008°34'0 0.0
2018-Jul-17 05:28N 53°33' E 008°34'0 0.0
2018-Jul-17 04:58N 53°33' E 008°34'0 0.0
2018-Jul-17 04:28N 53°33' E 008°34'0 0.0
2018-Jul-17 03:58N 53°33' E 008°34'0 0.0
2018-Jul-17 03:28N 53°33' E 008°34'0 0.0
2018-Jul-17 02:58N 53°33' E 008°34'0 0.0
2018-Jul-17 02:28N 53°33' E 008°34'0 0.0
2018-Jul-17 01:58N 53°33' E 008°34'0 0.0
2018-Jul-17 01:28N 53°33' E 008°34'0 0.0
2018-Jul-17 00:58N 53°33' E 008°34'0 0.0
2018-Jul-17 00:28N 53°33' E 008°34'0 0.0
2018-Jul-16 23:28N 53°33' E 008°34'0 0.0
2018-Jul-16 22:58N 53°33' E 008°34'0 0.0
2018-Jul-16 22:28N 53°33' E 008°34'0 0.0
2018-Jul-16 21:55N 53°33' E 008°34'0 0.0
2018-Jul-16 21:28N 53°33' E 008°34'0 0.0
2018-Jul-16 20:58N 53°33' E 008°34'0 0.0
2018-Jul-16 20:28N 53°33' E 008°34'0 0.0
2018-Jul-16 19:59N 53°33' E 008°34'0 0.0
2018-Jul-16 19:29N 53°33' E 008°34'0 0.0
2018-Jul-16 18:59N 53°33' E 008°34'0 0.0
2018-Jul-16 18:29N 53°33' E 008°34'0 0.0
2018-Jul-16 17:59N 53°33' E 008°34'0 0.0
2018-Jul-16 17:29N 53°33' E 008°34'0 0.0
2018-Jul-16 16:59N 53°33' E 008°34'0 0.0
2018-Jul-16 16:29N 53°33' E 008°34'0 0.0
2018-Jul-16 15:59N 53°33' E 008°34'0 0.0
2018-Jul-16 15:29N 53°33' E 008°34'0 0.0
2018-Jul-16 14:59N 53°33' E 008°34'0 0.0
2018-Jul-16 14:29N 53°33' E 008°34'0 0.0
2018-Jul-16 13:59N 53°33' E 008°34'0 0.0
2018-Jul-16 13:29N 53°33' E 008°34'0 0.0
2018-Jul-16 12:59N 53°33' E 008°34'0 0.0
2018-Jul-16 12:29N 53°33' E 008°34'0 0.0
2018-Jul-16 11:59N 53°33' E 008°34'0 0.0
2018-Jul-16 11:29N 53°33' E 008°34'0 0.0
2018-Jul-16 10:59N 53°33' E 008°34'0 0.0
2018-Jul-16 10:29N 53°33' E 008°34'0 0.0
2018-Jul-16 09:59N 53°33' E 008°34'0 0.0
2018-Jul-16 09:29N 53°33' E 008°34'0 0.0
2018-Jul-16 08:59N 53°33' E 008°34'0 0.0
2018-Jul-16 08:29N 53°33' E 008°34'0 0.0
2018-Jul-16 07:59N 53°33' E 008°34'0 0.0
2018-Jul-16 07:29N 53°33' E 008°34'0 0.0
2018-Jul-16 06:59N 53°33' E 008°34'0 0.0
2018-Jul-16 06:29N 53°33' E 008°34'0 0.0
2018-Jul-16 05:59N 53°33' E 008°34'0 0.0
2018-Jul-16 05:29N 53°33' E 008°34'0 0.0
2018-Jul-16 04:59N 53°33' E 008°34'0 0.0
2018-Jul-16 04:29N 53°33' E 008°34'0 0.0
2018-Jul-16 03:59N 53°33' E 008°34'0 0.0
2018-Jul-16 03:29N 53°33' E 008°34'0 0.0
2018-Jul-16 02:59N 53°33' E 008°34'0 0.0
2018-Jul-16 02:29N 53°33' E 008°34'0 0.0
2018-Jul-16 01:59N 53°33' E 008°34'0 0.0
2018-Jul-16 01:29N 53°33' E 008°34'0 0.0
2018-Jul-16 00:59N 53°33' E 008°34'0 0.0
2018-Jul-16 00:29N 53°33' E 008°34'0 0.0
2018-Jul-15 23:59N 53°33' E 008°34'0 0.0
2018-Jul-15 23:29N 53°33' E 008°34'0 0.0
2018-Jul-15 22:59N 53°33' E 008°34'0 0.0
2018-Jul-15 22:29N 53°33' E 008°34'0 0.0
2018-Jul-15 21:56N 53°33' E 008°34'0 0.0
2018-Jul-15 21:29N 53°33' E 008°34'0 0.0
2018-Jul-15 20:59N 53°33' E 008°34'0 0.0
2018-Jul-15 20:29N 53°33' E 008°34'0 0.0
2018-Jul-15 19:59N 53°33' E 008°34'0 0.0
2018-Jul-15 19:29N 53°33' E 008°34'0 0.0
2018-Jul-15 18:59N 53°33' E 008°34'0 0.0
2018-Jul-15 18:29N 53°33' E 008°34'0 0.0
2018-Jul-15 17:59N 53°33' E 008°34'0 0.0
2018-Jul-15 17:29N 53°33' E 008°34'0 0.0
2018-Jul-15 16:59N 53°33' E 008°34'0 0.0
2018-Jul-15 16:29N 53°33' E 008°34'0 0.0
2018-Jul-15 15:59N 53°33' E 008°34'0 0.0
2018-Jul-15 15:29N 53°33' E 008°34'0 0.0
2018-Jul-15 14:59N 53°33' E 008°34'0 0.0
2018-Jul-15 14:29N 53°33' E 008°34'0 0.0
2018-Jul-15 13:59N 53°33' E 008°34'0 0.0
2018-Jul-15 13:29N 53°33' E 008°34'0 0.0
2018-Jul-15 12:59N 53°33' E 008°34'0 0.0
2018-Jul-15 12:29N 53°33' E 008°34'0 0.0
2018-Jul-15 11:59N 53°33' E 008°34'0 0.0
2018-Jul-15 11:29N 53°33' E 008°34'0 0.0
2018-Jul-15 10:59N 53°33' E 008°34'0 0.0
2018-Jul-15 10:29N 53°33' E 008°34'0 0.0
2018-Jul-15 09:59N 53°33' E 008°34'0 0.0
2018-Jul-15 09:29N 53°33' E 008°34'0 0.0
2018-Jul-15 08:59N 53°33' E 008°34'0 0.0
2018-Jul-15 08:29N 53°33' E 008°34'0 0.0
2018-Jul-15 07:59N 53°33' E 008°34'0 0.0
2018-Jul-15 07:29N 53°33' E 008°34'0 0.0
2018-Jul-15 06:59N 53°33' E 008°34'0 0.0
2018-Jul-15 06:29N 53°33' E 008°34'0 0.0
2018-Jul-15 05:59N 53°33' E 008°34'0 0.0
2018-Jul-15 05:29N 53°33' E 008°34'0 0.0
2018-Jul-15 04:59N 53°33' E 008°34'0 0.0
2018-Jul-15 04:29N 53°33' E 008°34'0 0.0
2018-Jul-15 03:59N 53°33' E 008°34'0 0.0
2018-Jul-15 03:29N 53°33' E 008°34'0 0.0
2018-Jul-15 02:59N 53°33' E 008°34'0 0.0
2018-Jul-15 02:29N 53°33' E 008°34'0 0.0
2018-Jul-15 01:59N 53°33' E 008°34'0 0.0
2018-Jul-15 01:29N 53°33' E 008°34'0 0.0
2018-Jul-15 00:59N 53°33' E 008°34'0 0.0
2018-Jul-15 00:29N 53°33' E 008°34'0 0.0
2018-Jul-14 23:59N 53°33' E 008°34'0 0.0
2018-Jul-14 23:29N 53°33' E 008°34'0 0.0
2018-Jul-14 22:59N 53°33' E 008°34'0 0.0
2018-Jul-14 22:29N 53°33' E 008°34'0 0.0
2018-Jul-14 21:59N 53°33' E 008°34'0 0.0
2018-Jul-14 21:29N 53°33' E 008°34'0 0.0
2018-Jul-14 20:59N 53°33' E 008°34'0 0.0
2018-Jul-14 20:29N 53°33' E 008°34'0 0.0
2018-Jul-14 19:59N 53°33' E 008°34'0 0.0
2018-Jul-14 19:29N 53°33' E 008°34'0 0.0
2018-Jul-14 18:59N 53°33' E 008°34'0 0.0
2018-Jul-14 18:26N 53°33' E 008°34'0 0.0
2018-Jul-14 17:59N 53°33' E 008°34'0 0.0
2018-Jul-14 17:29N 53°33' E 008°34'0 0.0
2018-Jul-14 16:59N 53°33' E 008°34'0 0.0
2018-Jul-14 16:29N 53°33' E 008°34'0 0.0
2018-Jul-14 15:59N 53°33' E 008°34'0 0.0
2018-Jul-14 15:26N 53°33' E 008°34'0 0.0
2018-Jul-14 14:59N 53°33' E 008°34'0 0.0
2018-Jul-14 13:59N 53°33' E 008°34'0 0.0
2018-Jul-14 13:29N 53°33' E 008°34'0 0.0
2018-Jul-14 12:59N 53°33' E 008°34'0 0.0
2018-Jul-14 12:29N 53°33' E 008°34'0 0.0
2018-Jul-14 11:59N 53°33' E 008°34'0 0.0
2018-Jul-14 11:29N 53°33' E 008°34'0 0.0
2018-Jul-14 10:59N 53°33' E 008°34'0 0.0
2018-Jul-14 10:29N 53°33' E 008°34'0 0.0
2018-Jul-14 09:59N 53°33' E 008°34'0 0.0
2018-Jul-14 09:29N 53°33' E 008°34'0 0.0
2018-Jul-14 08:59N 53°33' E 008°34'0 0.0
2018-Jul-14 08:29N 53°33' E 008°34'0 0.0
2018-Jul-14 07:59N 53°33' E 008°34'0 0.0
2018-Jul-14 07:29N 53°33' E 008°34'0 0.1
2018-Jul-14 06:29N 53°33' E 008°34'0 0.0
2018-Jul-14 05:59N 53°33' E 008°34'0 0.0
2018-Jul-14 05:26N 53°33' E 008°34'0 0.0
2018-Jul-14 04:56N 53°33' E 008°34'0 0.0
2018-Jul-14 04:29N 53°33' E 008°34'0 0.0
2018-Jul-14 03:59N 53°33' E 008°34'0 0.0
2018-Jul-14 03:29N 53°33' E 008°34'0 0.0
2018-Jul-14 02:59N 53°33' E 008°34'0 0.0
2018-Jul-14 02:29N 53°33' E 008°34'0 0.0
2018-Jul-14 01:59N 53°33' E 008°34'0 0.0
2018-Jul-14 01:29N 53°33' E 008°34'0 0.0
2018-Jul-14 00:59N 53°33' E 008°34'0 0.0
2018-Jul-14 00:29N 53°33' E 008°34'0 0.0
2018-Jul-13 23:59N 53°33' E 008°34'0 0.0
2018-Jul-13 23:29N 53°33' E 008°34'0 0.0
2018-Jul-13 22:59N 53°33' E 008°34'0 0.0
2018-Jul-13 22:29N 53°33' E 008°34'0 0.0
2018-Jul-13 21:59N 53°33' E 008°34'0 0.0
2018-Jul-13 21:29N 53°33' E 008°34'0 0.0
2018-Jul-13 20:59N 53°33' E 008°34'0 0.0
2018-Jul-13 20:29N 53°33' E 008°34'0 0.0
2018-Jul-13 19:56N 53°33' E 008°34'0 0.0
2018-Jul-13 19:29N 53°33' E 008°34'0 0.0
2018-Jul-13 18:59N 53°33' E 008°34'0 0.0
2018-Jul-13 18:29N 53°33' E 008°34'0 0.0
2018-Jul-13 17:59N 53°33' E 008°34'0 0.0
2018-Jul-13 17:29N 53°33' E 008°34'0 0.0
2018-Jul-13 16:59N 53°33' E 008°34'0 0.0
2018-Jul-13 16:26N 53°33' E 008°34'0 0.0
2018-Jul-13 15:59N 53°33' E 008°34'0 0.0
2018-Jul-13 15:29N 53°33' E 008°34'0 0.0
2018-Jul-13 14:59N 53°33' E 008°34'0 0.0
2018-Jul-13 14:29N 53°33' E 008°34'0 0.0
2018-Jul-13 13:26N 53°33' E 008°34'0 0.3
2018-Jul-13 13:01N 53°33' E 008°34'0 0.2
2018-Jul-13 12:30N 53°33' E 008°34'0 0.1
2018-Jul-13 12:00N 53°33' E 008°34'3 6.4
2018-Jul-13 11:31N 53°36' E 008°30'612.6
2018-Jul-13 11:00N 53°40' E 008°22'612.8
2018-Jul-13 10:30N 53°44' E 008°14'612.8
2018-Jul-13 10:00N 53°49' E 008°07'612.2
2018-Jul-13 09:30N 53°51' E 007°57'611.9
2018-Jul-13 08:59N 53°53' E 007°47'612.1
2018-Jul-13 08:29N 53°54' E 007°37'612.3
2018-Jul-13 07:58N 53°53' E 007°26'612.4
2018-Jul-13 07:30N 53°52' E 007°16'912.4
2018-Jul-13 06:48N 53°50' E 007°02'412.3
2018-Jul-13 06:30N 53°49' E 006°56'912.1
2018-Jul-13 05:47N 53°47' E 006°42'19 6.2
2018-Jul-13 02:46N 53°29' E 006°50'413.3
2018-Jul-13 02:30N 53°26' E 006°55'713.5
2018-Jul-13 02:01N 53°20' E 006°60'713.0
2018-Jul-13 01:30N 53°20' E 007°11'711.1
2018-Jul-13 00:53N 53°18' E 007°22'4 8.7
2018-Jul-13 00:23N 53°14' E 007°25'3 8.2
2018-Jul-12 23:59N 53°11' E 007°23'3 6.6
2018-Jul-12 23:30N 53°08' E 007°22'2 0.9
2018-Jul-12 21:40N 53°06' E 007°22'0 1.2
2018-Jul-12 21:30N 53°06' E 007°22'1 0.6
2018-Jul-12 20:32N 53°05' E 007°23'0 0.0
2018-Jul-12 20:29N 53°05' E 007°23'  

Dump ship's entire track history